sensor_id;sensor_type;location;lat;lon;timestamp;pressure;altitude;pressure_sealevel;temperature;humidity
65190;BME280;51777;53.570;9.984;2022-12-07T00:01:28;100943.72;;;3.28;100.00
65190;BME280;51777;53.570;9.984;2022-12-07T00:03:56;100944.66;;;3.27;100.00
65190;BME280;51777;53.570;9.984;2022-12-07T00:06:41;100941.19;;;3.28;100.00
65190;BME280;51777;53.570;9.984;2022-12-07T00:09:11;100934.78;;;3.21;100.00
65190;BME280;51777;53.570;9.984;2022-12-07T00:11:37;100936.44;;;3.22;100.00
65190;BME280;51777;53.570;9.984;2022-12-07T00:14:05;100930.97;;;3.28;100.00
65190;BME280;51777;53.570;9.984;2022-12-07T00:16:32;100931.50;;;3.33;100.00
65190;BME280;51777;53.570;9.984;2022-12-07T00:18:58;100931.69;;;3.30;100.00
65190;BME280;51777;53.570;9.984;2022-12-07T00:21:26;100918.00;;;3.31;100.00
65190;BME280;51777;53.570;9.984;2022-12-07T00:23:52;100926.56;;;3.30;100.00
65190;BME280;51777;53.570;9.984;2022-12-07T00:26:21;100917.16;;;3.31;100.00
65190;BME280;51777;53.570;9.984;2022-12-07T00:28:52;100916.34;;;3.30;100.00
65190;BME280;51777;53.570;9.984;2022-12-07T00:31:20;100916.81;;;3.37;100.00
65190;BME280;51777;53.570;9.984;2022-12-07T00:33:46;100914.88;;;3.40;100.00
65190;BME280;51777;53.570;9.984;2022-12-07T00:36:14;100911.78;;;3.35;100.00
65190;BME280;51777;53.570;9.984;2022-12-07T00:38:40;100905.75;;;3.36;100.00
65190;BME280;51777;53.570;9.984;2022-12-07T00:41:17;100910.88;;;3.36;100.00
65190;BME280;51777;53.570;9.984;2022-12-07T00:43:43;100908.84;;;3.41;100.00
65190;BME280;51777;53.570;9.984;2022-12-07T00:46:10;100905.47;;;3.41;100.00
65190;BME280;51777;53.570;9.984;2022-12-07T00:48:36;100908.47;;;3.47;100.00
65190;BME280;51777;53.570;9.984;2022-12-07T00:51:02;100898.97;;;3.49;100.00
65190;BME280;51777;53.570;9.984;2022-12-07T00:53:27;100898.66;;;3.54;100.00
65190;BME280;51777;53.570;9.984;2022-12-07T00:55:53;100891.09;;;3.52;100.00
65190;BME280;51777;53.570;9.984;2022-12-07T00:58:20;100888.53;;;3.52;100.00
65190;BME280;51777;53.570;9.984;2022-12-07T01:00:46;100892.84;;;3.52;100.00
65190;BME280;51777;53.570;9.984;2022-12-07T01:03:13;100890.19;;;3.53;100.00
65190;BME280;51777;53.570;9.984;2022-12-07T01:05:39;100884.25;;;3.53;100.00
65190;BME280;51777;53.570;9.984;2022-12-07T01:08:06;100876.59;;;3.53;100.00
65190;BME280;51777;53.570;9.984;2022-12-07T01:10:31;100880.88;;;3.52;100.00
65190;BME280;51777;53.570;9.984;2022-12-07T01:12:58;100876.94;;;3.61;100.00
65190;BME280;51777;53.570;9.984;2022-12-07T01:15:24;100868.81;;;3.54;100.00
65190;BME280;51777;53.570;9.984;2022-12-07T01:17:50;100870.66;;;3.52;100.00
65190;BME280;51777;53.570;9.984;2022-12-07T01:20:15;100874.50;;;3.45;100.00
65190;BME280;51777;53.570;9.984;2022-12-07T01:22:41;100873.59;;;3.46;100.00
65190;BME280;51777;53.570;9.984;2022-12-07T01:25:08;100871.69;;;3.50;100.00
65190;BME280;51777;53.570;9.984;2022-12-07T01:27:34;100866.31;;;3.40;100.00
65190;BME280;51777;53.570;9.984;2022-12-07T01:30:00;100866.94;;;3.44;100.00
65190;BME280;51777;53.570;9.984;2022-12-07T01:32:26;100865.69;;;3.37;100.00
65190;BME280;51777;53.570;9.984;2022-12-07T01:34:51;100869.16;;;3.36;100.00
65190;BME280;51777;53.570;9.984;2022-12-07T01:37:17;100870.59;;;3.40;100.00
65190;BME280;51777;53.570;9.984;2022-12-07T01:39:42;100879.09;;;3.40;100.00
65190;BME280;51777;53.570;9.984;2022-12-07T01:42:11;100864.69;;;3.39;100.00
65190;BME280;51777;53.570;9.984;2022-12-07T01:45:31;100869.38;;;3.45;100.00
65190;BME280;51777;53.570;9.984;2022-12-07T01:47:56;100854.34;;;3.41;100.00
65190;BME280;51777;53.570;9.984;2022-12-07T01:50:26;100860.38;;;3.40;100.00
65190;BME280;51777;53.570;9.984;2022-12-07T01:52:54;100852.16;;;3.35;100.00
65190;BME280;51777;53.570;9.984;2022-12-07T01:55:21;100865.16;;;3.32;100.00
65190;BME280;51777;53.570;9.984;2022-12-07T01:57:51;100874.53;;;3.31;100.00
65190;BME280;51777;53.570;9.984;2022-12-07T02:00:17;100865.69;;;3.37;100.00
65190;BME280;51777;53.570;9.984;2022-12-07T02:02:47;100856.47;;;3.34;100.00
65190;BME280;51777;53.570;9.984;2022-12-07T02:05:15;100865.97;;;3.32;100.00
65190;BME280;51777;53.570;9.984;2022-12-07T02:07:42;100862.69;;;3.30;100.00
65190;BME280;51777;53.570;9.984;2022-12-07T02:10:14;100861.16;;;3.28;100.00
65190;BME280;51777;53.570;9.984;2022-12-07T02:12:39;100868.19;;;3.24;100.00
65190;BME280;51777;53.570;9.984;2022-12-07T02:15:05;100856.34;;;3.23;100.00
65190;BME280;51777;53.570;9.984;2022-12-07T02:17:43;100852.03;;;3.23;100.00
65190;BME280;51777;53.570;9.984;2022-12-07T02:20:18;100857.16;;;3.23;100.00
65190;BME280;51777;53.570;9.984;2022-12-07T02:28:14;100859.25;;;3.17;100.00
65190;BME280;51777;53.570;9.984;2022-12-07T02:30:47;100849.97;;;3.16;100.00
65190;BME280;51777;53.570;9.984;2022-12-07T02:33:22;100861.09;;;3.15;100.00
65190;BME280;51777;53.570;9.984;2022-12-07T02:36:00;100847.59;;;3.13;100.00
65190;BME280;51777;53.570;9.984;2022-12-07T02:38:55;100851.06;;;3.12;100.00
65190;BME280;51777;53.570;9.984;2022-12-07T02:41:37;100852.88;;;3.10;100.00
65190;BME280;51777;53.570;9.984;2022-12-07T02:44:09;100847.88;;;3.08;100.00
65190;BME280;51777;53.570;9.984;2022-12-07T02:46:44;100851.25;;;3.09;100.00
65190;BME280;51777;53.570;9.984;2022-12-07T02:49:12;100846.13;;;3.09;100.00
65190;BME280;51777;53.570;9.984;2022-12-07T02:51:43;100848.53;;;3.12;100.00
65190;BME280;51777;53.570;9.984;2022-12-07T02:54:17;100850.16;;;3.13;100.00
65190;BME280;51777;53.570;9.984;2022-12-07T02:56:50;100850.06;;;3.14;100.00
65190;BME280;51777;53.570;9.984;2022-12-07T03:07:24;100857.66;;;3.02;100.00
65190;BME280;51777;53.570;9.984;2022-12-07T03:15:26;100853.81;;;2.94;100.00
65190;BME280;51777;53.570;9.984;2022-12-07T03:17:55;100855.66;;;2.92;100.00
65190;BME280;51777;53.570;9.984;2022-12-07T03:20:24;100850.56;;;2.92;100.00
65190;BME280;51777;53.570;9.984;2022-12-07T03:22:52;100851.56;;;2.90;100.00
65190;BME280;51777;53.570;9.984;2022-12-07T03:25:19;100849.00;;;2.90;100.00
65190;BME280;51777;53.570;9.984;2022-12-07T03:27:57;100848.19;;;2.89;100.00
65190;BME280;51777;53.570;9.984;2022-12-07T03:30:46;100851.75;;;2.87;100.00
65190;BME280;51777;53.570;9.984;2022-12-07T03:33:22;100844.34;;;2.82;100.00
65190;BME280;51777;53.570;9.984;2022-12-07T03:36:16;100851.09;;;2.83;100.00
65190;BME280;51777;53.570;9.984;2022-12-07T03:38:48;100853.84;;;2.80;100.00
65190;BME280;51777;53.570;9.984;2022-12-07T03:41:19;100851.50;;;2.77;100.00
65190;BME280;51777;53.570;9.984;2022-12-07T03:43:47;100854.97;;;2.76;100.00
65190;BME280;51777;53.570;9.984;2022-12-07T03:46:29;100851.84;;;2.71;100.00
65190;BME280;51777;53.570;9.984;2022-12-07T03:51:41;100851.13;;;2.69;100.00
65190;BME280;51777;53.570;9.984;2022-12-07T03:54:28;100846.84;;;2.70;100.00
65190;BME280;51777;53.570;9.984;2022-12-07T03:56:58;100846.31;;;2.64;100.00
65190;BME280;51777;53.570;9.984;2022-12-07T03:59:24;100850.59;;;2.64;100.00
65190;BME280;51777;53.570;9.984;2022-12-07T04:01:56;100854.97;;;2.62;100.00
65190;BME280;51777;53.570;9.984;2022-12-07T04:04:23;100862.63;;;2.62;100.00
65190;BME280;51777;53.570;9.984;2022-12-07T04:06:50;100861.88;;;2.60;100.00
65190;BME280;51777;53.570;9.984;2022-12-07T04:09:16;100862.97;;;2.56;100.00
65190;BME280;51777;53.570;9.984;2022-12-07T04:11:42;100859.50;;;2.57;100.00
65190;BME280;51777;53.570;9.984;2022-12-07T04:14:08;100859.69;;;2.54;100.00
65190;BME280;51777;53.570;9.984;2022-12-07T04:16:54;100869.91;;;2.54;100.00
65190;BME280;51777;53.570;9.984;2022-12-07T04:19:25;100864.06;;;2.52;100.00
65190;BME280;51777;53.570;9.984;2022-12-07T04:21:50;100853.88;;;2.52;100.00
65190;BME280;51777;53.570;9.984;2022-12-07T04:24:16;100858.16;;;2.51;100.00
65190;BME280;51777;53.570;9.984;2022-12-07T04:26:43;100858.06;;;2.53;100.00
65190;BME280;51777;53.570;9.984;2022-12-07T04:29:09;100856.22;;;2.55;100.00
65190;BME280;51777;53.570;9.984;2022-12-07T04:31:35;100862.06;;;2.57;100.00
65190;BME280;51777;53.570;9.984;2022-12-07T04:34:01;100863.78;;;2.56;100.00
65190;BME280;51777;53.570;9.984;2022-12-07T04:36:27;100869.00;;;2.55;100.00
65190;BME280;51777;53.570;9.984;2022-12-07T04:38:54;100869.19;;;2.52;100.00
65190;BME280;51777;53.570;9.984;2022-12-07T04:41:20;100865.81;;;2.51;100.00
65190;BME280;51777;53.570;9.984;2022-12-07T04:43:55;100871.91;;;2.49;100.00
65190;BME280;51777;53.570;9.984;2022-12-07T04:46:22;100867.69;;;2.48;100.00
65190;BME280;51777;53.570;9.984;2022-12-07T04:48:47;100874.63;;;2.46;100.00
65190;BME280;51777;53.570;9.984;2022-12-07T04:51:14;100867.78;;;2.46;100.00
65190;BME280;51777;53.570;9.984;2022-12-07T04:53:40;100865.53;;;2.42;100.00
65190;BME280;51777;53.570;9.984;2022-12-07T04:56:06;100866.44;;;2.41;100.00
65190;BME280;51777;53.570;9.984;2022-12-07T04:58:31;100864.81;;;2.40;100.00
65190;BME280;51777;53.570;9.984;2022-12-07T05:00:57;100867.53;;;2.37;100.00
65190;BME280;51777;53.570;9.984;2022-12-07T05:03:22;100865.88;;;2.35;100.00
65190;BME280;51777;53.570;9.984;2022-12-07T05:05:47;100866.78;;;2.34;100.00
65190;BME280;51777;53.570;9.984;2022-12-07T05:08:13;100863.31;;;2.35;100.00
65190;BME280;51777;53.570;9.984;2022-12-07T05:10:38;100859.22;;;2.33;100.00
65190;BME280;51777;53.570;9.984;2022-12-07T05:13:04;100866.06;;;2.32;100.00
65190;BME280;51777;53.570;9.984;2022-12-07T05:15:29;100862.50;;;2.35;100.00
65190;BME280;51777;53.570;9.984;2022-12-07T05:17:54;100858.97;;;2.38;100.00
65190;BME280;51777;53.570;9.984;2022-12-07T05:20:20;100862.97;;;2.42;100.00
65190;BME280;51777;53.570;9.984;2022-12-07T05:22:45;100868.91;;;2.42;100.00
65190;BME280;51777;53.570;9.984;2022-12-07T05:25:11;100862.06;;;2.43;100.00
65190;BME280;51777;53.570;9.984;2022-12-07T05:27:36;100861.16;;;2.44;100.00
65190;BME280;51777;53.570;9.984;2022-12-07T05:30:01;100860.22;;;2.45;100.00
65190;BME280;51777;53.570;9.984;2022-12-07T05:32:27;100857.59;;;2.46;100.00
65190;BME280;51777;53.570;9.984;2022-12-07T05:34:52;100855.84;;;2.47;100.00
65190;BME280;51777;53.570;9.984;2022-12-07T05:37:19;100864.53;;;2.44;100.00
65190;BME280;51777;53.570;9.984;2022-12-07T05:39:45;100865.34;;;2.45;100.00
65190;BME280;51777;53.570;9.984;2022-12-07T05:42:11;100863.97;;;2.39;100.00
65190;BME280;51777;53.570;9.984;2022-12-07T05:44:43;100865.63;;;2.40;100.00
65190;BME280;51777;53.570;9.984;2022-12-07T05:47:09;100857.16;;;2.40;100.00
65190;BME280;51777;53.570;9.984;2022-12-07T05:49:35;100863.97;;;2.39;100.00
65190;BME280;51777;53.570;9.984;2022-12-07T05:52:01;100857.97;;;2.40;100.00
65190;BME280;51777;53.570;9.984;2022-12-07T05:54:26;100850.22;;;2.42;100.00
65190;BME280;51777;53.570;9.984;2022-12-07T05:56:51;100861.34;;;2.41;100.00
65190;BME280;51777;53.570;9.984;2022-12-07T05:59:17;100852.13;;;2.38;100.00
65190;BME280;51777;53.570;9.984;2022-12-07T06:02:06;100857.34;;;2.37;100.00
65190;BME280;51777;53.570;9.984;2022-12-07T06:04:34;100852.97;;;2.39;100.00
65190;BME280;51777;53.570;9.984;2022-12-07T06:07:00;100852.97;;;2.39;100.00
65190;BME280;51777;53.570;9.984;2022-12-07T06:09:27;100859.88;;;2.37;100.00
65190;BME280;51777;53.570;9.984;2022-12-07T06:11:54;100854.84;;;2.35;100.00
65190;BME280;51777;53.570;9.984;2022-12-07T06:14:38;100854.84;;;2.35;100.00
65190;BME280;51777;53.570;9.984;2022-12-07T06:17:04;100854.13;;;2.33;100.00
65190;BME280;51777;53.570;9.984;2022-12-07T06:19:30;100850.56;;;2.35;100.00
65190;BME280;51777;53.570;9.984;2022-12-07T06:21:56;100853.78;;;2.39;100.00
65190;BME280;51777;53.570;9.984;2022-12-07T06:24:22;100848.66;;;2.39;100.00
65190;BME280;51777;53.570;9.984;2022-12-07T06:26:50;100852.97;;;2.39;100.00
65190;BME280;51777;53.570;9.984;2022-12-07T06:29:16;100843.56;;;2.39;100.00
65190;BME280;51777;53.570;9.984;2022-12-07T06:31:42;100844.47;;;2.38;100.00
65190;BME280;51777;53.570;9.984;2022-12-07T06:34:13;100845.31;;;2.39;100.00
65190;BME280;51777;53.570;9.984;2022-12-07T06:36:40;100852.03;;;2.40;100.00
65190;BME280;51777;53.570;9.984;2022-12-07T06:39:06;100854.50;;;2.41;100.00
65190;BME280;51777;53.570;9.984;2022-12-07T06:41:55;100848.47;;;2.42;100.00
65190;BME280;51777;53.570;9.984;2022-12-07T06:44:21;100856.22;;;2.41;100.00
65190;BME280;51777;53.570;9.984;2022-12-07T06:46:47;100847.66;;;2.42;100.00
65190;BME280;51777;53.570;9.984;2022-12-07T06:49:13;100850.13;;;2.43;100.00
65190;BME280;51777;53.570;9.984;2022-12-07T06:51:38;100846.75;;;2.43;100.00
65190;BME280;51777;53.570;9.984;2022-12-07T06:54:10;100847.66;;;2.42;100.00
65190;BME280;51777;53.570;9.984;2022-12-07T06:56:36;100839.09;;;2.43;100.00
65190;BME280;51777;53.570;9.984;2022-12-07T06:59:02;100839.00;;;2.44;100.00
65190;BME280;51777;53.570;9.984;2022-12-07T07:01:28;100834.28;;;2.38;100.00
65190;BME280;51777;53.570;9.984;2022-12-07T07:03:54;100844.63;;;2.35;100.00
65190;BME280;51777;53.570;9.984;2022-12-07T07:06:20;100851.31;;;2.38;100.00
65190;BME280;51777;53.570;9.984;2022-12-07T07:08:45;100852.03;;;2.40;100.00
65190;BME280;51777;53.570;9.984;2022-12-07T07:11:12;100852.03;;;2.40;100.00
65190;BME280;51777;53.570;9.984;2022-12-07T07:13:37;100863.31;;;2.35;100.00
65190;BME280;51777;53.570;9.984;2022-12-07T07:16:03;100851.41;;;2.36;100.00
65190;BME280;51777;53.570;9.984;2022-12-07T07:18:29;100857.25;;;2.38;100.00
65190;BME280;51777;53.570;9.984;2022-12-07T07:20:54;100842.75;;;2.39;100.00
65190;BME280;51777;53.570;9.984;2022-12-07T07:23:21;100849.59;;;2.38;100.00
65190;BME280;51777;53.570;9.984;2022-12-07T07:25:47;100848.75;;;2.38;100.00
65190;BME280;51777;53.570;9.984;2022-12-07T07:28:13;100846.31;;;2.36;100.00
65190;BME280;51777;53.570;9.984;2022-12-07T07:30:39;100853.88;;;2.38;100.00
65190;BME280;51777;53.570;9.984;2022-12-07T07:33:05;100853.88;;;2.38;100.00
65190;BME280;51777;53.570;9.984;2022-12-07T07:35:32;100854.03;;;2.34;100.00
65190;BME280;51777;53.570;9.984;2022-12-07T07:37:58;100855.59;;;2.37;100.00
65190;BME280;51777;53.570;9.984;2022-12-07T07:40:24;100862.78;;;2.45;100.00
65190;BME280;51777;53.570;9.984;2022-12-07T07:42:53;100868.06;;;2.42;100.00
65190;BME280;51777;53.570;9.984;2022-12-07T07:45:21;100863.25;;;2.37;100.00
65190;BME280;51777;53.570;9.984;2022-12-07T07:47:47;100862.97;;;2.42;100.00
65190;BME280;51777;53.570;9.984;2022-12-07T07:50:13;100870.44;;;2.45;100.00
65190;BME280;51777;53.570;9.984;2022-12-07T07:52:39;100865.00;;;2.51;100.00
65190;BME280;51777;53.570;9.984;2022-12-07T07:55:06;100864.72;;;2.55;100.00
65190;BME280;51777;53.570;9.984;2022-12-07T07:57:34;100866.09;;;2.61;100.00
65190;BME280;51777;53.570;9.984;2022-12-07T07:59:59;100874.63;;;2.60;100.00
65190;BME280;51777;53.570;9.984;2022-12-07T08:02:25;100878.91;;;2.59;100.00
65190;BME280;51777;53.570;9.984;2022-12-07T08:04:50;100870.09;;;2.65;100.00
65190;BME280;51777;53.570;9.984;2022-12-07T08:07:15;100878.28;;;2.70;100.00
65190;BME280;51777;53.570;9.984;2022-12-07T08:09:41;100879.00;;;2.72;100.00
65190;BME280;51777;53.570;9.984;2022-12-07T08:12:08;100865.16;;;2.76;100.00
65190;BME280;51777;53.570;9.984;2022-12-07T08:14:33;100874.09;;;2.83;100.00
65190;BME280;51777;53.570;9.984;2022-12-07T08:16:59;100882.41;;;2.87;100.00
65190;BME280;51777;53.570;9.984;2022-12-07T08:19:25;100875.25;;;2.92;100.00
65190;BME280;51777;53.570;9.984;2022-12-07T08:21:50;100874.16;;;2.96;100.00
65190;BME280;51777;53.570;9.984;2022-12-07T08:24:16;100873.44;;;2.94;100.00
65190;BME280;51777;53.570;9.984;2022-12-07T08:26:41;100873.06;;;3.00;100.00
65190;BME280;51777;53.570;9.984;2022-12-07T08:29:07;100868.78;;;3.01;100.00
65190;BME280;51777;53.570;9.984;2022-12-07T08:31:32;100866.66;;;3.07;100.00
65190;BME280;51777;53.570;9.984;2022-12-07T08:33:58;100867.56;;;3.06;100.00
65190;BME280;51777;53.570;9.984;2022-12-07T08:36:24;100880.72;;;3.14;100.00
65190;BME280;51777;53.570;9.984;2022-12-07T08:38:49;100875.22;;;3.20;100.00
65190;BME280;51777;53.570;9.984;2022-12-07T08:41:15;100874.03;;;3.26;100.00
65190;BME280;51777;53.570;9.984;2022-12-07T08:43:41;100875.84;;;3.24;100.00
65190;BME280;51777;53.570;9.984;2022-12-07T08:46:30;100881.78;;;3.24;100.00
65190;BME280;51777;53.570;9.984;2022-12-07T08:49:04;100882.41;;;3.28;100.00
65190;BME280;51777;53.570;9.984;2022-12-07T08:51:31;100876.69;;;3.24;100.00
65190;BME280;51777;53.570;9.984;2022-12-07T08:53:58;100880.38;;;3.33;100.00
65190;BME280;51777;53.570;9.984;2022-12-07T08:56:24;100867.34;;;3.38;100.00
65190;BME280;51777;53.570;9.984;2022-12-07T08:58:50;100875.75;;;3.52;100.00
65190;BME280;51777;53.570;9.984;2022-12-07T09:01:15;100878.53;;;3.49;100.00
65190;BME280;51777;53.570;9.984;2022-12-07T09:03:41;100881.59;;;3.54;100.00
65190;BME280;51777;53.570;9.984;2022-12-07T09:06:07;100880.25;;;3.49;100.00
65190;BME280;51777;53.570;9.984;2022-12-07T09:08:39;100880.47;;;3.59;100.00
65190;BME280;51777;53.570;9.984;2022-12-07T09:11:05;100885.00;;;3.68;100.00
65190;BME280;51777;53.570;9.984;2022-12-07T09:13:31;100885.41;;;3.62;100.00
65190;BME280;51777;53.570;9.984;2022-12-07T09:15:56;100890.47;;;3.76;100.00
65190;BME280;51777;53.570;9.984;2022-12-07T09:18:22;100889.56;;;3.77;100.00
65190;BME280;51777;53.570;9.984;2022-12-07T09:20:47;100886.06;;;3.78;100.00
65190;BME280;51777;53.570;9.984;2022-12-07T09:23:13;100890.25;;;3.79;100.00
65190;BME280;51777;53.570;9.984;2022-12-07T09:25:38;100890.25;;;3.79;100.00
65190;BME280;51777;53.570;9.984;2022-12-07T09:28:04;100889.97;;;3.83;100.00
65190;BME280;51777;53.570;9.984;2022-12-07T09:30:29;100890.72;;;3.86;100.00
65190;BME280;51777;53.570;9.984;2022-12-07T09:32:56;100886.16;;;3.76;100.00
65190;BME280;51777;53.570;9.984;2022-12-07T09:35:23;100886.59;;;3.83;100.00
65190;BME280;51777;53.570;9.984;2022-12-07T09:37:49;100888.25;;;3.97;100.00
65190;BME280;51777;53.570;9.984;2022-12-07T09:40:16;100879.38;;;4.02;100.00
65190;BME280;51777;53.570;9.984;2022-12-07T09:42:46;100891.03;;;4.06;100.00
65190;BME280;51777;53.570;9.984;2022-12-07T09:45:15;100890.66;;;4.12;100.00
65190;BME280;51777;53.570;9.984;2022-12-07T09:47:42;100892.78;;;4.19;100.00
65190;BME280;51777;53.570;9.984;2022-12-07T09:50:14;100884.84;;;4.23;100.00
65190;BME280;51777;53.570;9.984;2022-12-07T09:52:41;100883.19;;;4.22;100.00
65190;BME280;51777;53.570;9.984;2022-12-07T09:55:13;100883.81;;;4.26;100.00
65190;BME280;51777;53.570;9.984;2022-12-07T09:57:40;100875.53;;;4.35;100.00
65190;BME280;51777;53.570;9.984;2022-12-07T10:00:16;100877.88;;;4.38;100.00
65190;BME280;51777;53.570;9.984;2022-12-07T10:03:02;100879.41;;;4.40;100.00
65190;BME280;51777;53.570;9.984;2022-12-07T10:05:30;100876.75;;;4.42;100.00
65190;BME280;51777;53.570;9.984;2022-12-07T10:07:58;100881.25;;;4.51;100.00
65190;BME280;51777;53.570;9.984;2022-12-07T10:10:34;100875.50;;;4.60;100.00
65190;BME280;51777;53.570;9.984;2022-12-07T10:13:07;100877.34;;;4.58;100.00
65190;BME280;51777;53.570;9.984;2022-12-07T10:18:36;100872.13;;;4.60;100.00
65190;BME280;51777;53.570;9.984;2022-12-07T10:21:17;100866.47;;;4.67;100.00
65190;BME280;51777;53.570;9.984;2022-12-07T10:26:38;100877.13;;;4.74;100.00
65190;BME280;51777;53.570;9.984;2022-12-07T10:29:21;100874.47;;;4.63;100.00
65190;BME280;51777;53.570;9.984;2022-12-07T10:31:56;100879.63;;;4.50;100.00
65190;BME280;51777;53.570;9.984;2022-12-07T10:34:45;100870.69;;;4.56;100.00
65190;BME280;51777;53.570;9.984;2022-12-07T10:39:42;100877.03;;;4.76;100.00
65190;BME280;51777;53.570;9.984;2022-12-07T10:42:18;100869.84;;;4.81;100.00
65190;BME280;51777;53.570;9.984;2022-12-07T10:44:44;100870.34;;;4.86;100.00
65190;BME280;51777;53.570;9.984;2022-12-07T10:48:22;100871.06;;;4.88;100.00
65190;BME280;51777;53.570;9.984;2022-12-07T10:56:01;100873.75;;;5.23;100.00
65190;BME280;51777;53.570;9.984;2022-12-07T10:58:41;100872.94;;;5.22;100.00
65190;BME280;51777;53.570;9.984;2022-12-07T11:04:21;100864.47;;;5.09;100.00
65190;BME280;51777;53.570;9.984;2022-12-07T11:09:56;100854.63;;;5.03;100.00
65190;BME280;51777;53.570;9.984;2022-12-07T11:15:14;100852.47;;;5.10;100.00
65190;BME280;51777;53.570;9.984;2022-12-07T11:20:44;100850.97;;;5.18;100.00
65190;BME280;51777;53.570;9.984;2022-12-07T11:25:49;100846.47;;;5.22;100.00
65190;BME280;51777;53.570;9.984;2022-12-07T11:28:45;100850.56;;;5.24;100.00
65190;BME280;51777;53.570;9.984;2022-12-07T11:31:28;100848.97;;;5.11;100.00
65190;BME280;51777;53.570;9.984;2022-12-07T11:34:13;100850.25;;;4.92;100.00
65190;BME280;51777;53.570;9.984;2022-12-07T11:36:44;100845.09;;;5.05;100.00
65190;BME280;51777;53.570;9.984;2022-12-07T11:41:49;100840.88;;;5.04;100.00
65190;BME280;51777;53.570;9.984;2022-12-07T11:47:12;100836.69;;;5.03;100.00
65190;BME280;51777;53.570;9.984;2022-12-07T11:52:20;100824.97;;;5.12;100.00
65190;BME280;51777;53.570;9.984;2022-12-07T11:54:50;100828.63;;;5.20;100.00
65190;BME280;51777;53.570;9.984;2022-12-07T11:57:36;100826.63;;;5.13;100.00
65190;BME280;51777;53.570;9.984;2022-12-07T12:00:06;100826.28;;;5.17;100.00
65190;BME280;51777;53.570;9.984;2022-12-07T12:02:46;100825.91;;;5.11;100.00
65190;BME280;51777;53.570;9.984;2022-12-07T12:05:22;100830.06;;;5.24;100.00
65190;BME280;51777;53.570;9.984;2022-12-07T12:07:57;100829.59;;;5.30;100.00
65190;BME280;51777;53.570;9.984;2022-12-07T12:21:10;100835.72;;;5.41;100.00
65190;BME280;51777;53.570;9.984;2022-12-07T12:24:02;100839.00;;;5.43;100.00
65190;BME280;51777;53.570;9.984;2022-12-07T12:26:32;100828.53;;;5.46;100.00
65190;BME280;51777;53.570;9.984;2022-12-07T12:29:22;100831.91;;;5.46;100.00
65190;BME280;51777;53.570;9.984;2022-12-07T12:32:12;100834.69;;;5.43;100.00
65190;BME280;51777;53.570;9.984;2022-12-07T12:37:43;100819.56;;;5.27;100.00
65190;BME280;51777;53.570;9.984;2022-12-07T12:42:50;100818.28;;;5.46;100.00
65190;BME280;51777;53.570;9.984;2022-12-07T12:45:25;100816.25;;;5.38;100.00
65190;BME280;51777;53.570;9.984;2022-12-07T12:50:34;100815.44;;;5.38;100.00
65190;BME280;51777;53.570;9.984;2022-12-07T12:56:19;100816.78;;;5.30;100.00
65190;BME280;51777;53.570;9.984;2022-12-07T12:58:37;100813.28;;;5.31;100.00
65190;BME280;51777;53.570;9.984;2022-12-07T13:04:01;100816.13;;;5.16;100.00
65190;BME280;51777;53.570;9.984;2022-12-07T13:09:15;100808.91;;;5.10;100.00
65190;BME280;51777;53.570;9.984;2022-12-07T13:11:47;100819.53;;;5.16;100.00
65190;BME280;51777;53.570;9.984;2022-12-07T13:17:08;100815.38;;;5.03;100.00
65190;BME280;51777;53.570;9.984;2022-12-07T13:24:59;100810.72;;;5.08;100.00
65190;BME280;51777;53.570;9.984;2022-12-07T13:27:28;100818.00;;;5.14;100.00
65190;BME280;51777;53.570;9.984;2022-12-07T13:29:56;100818.63;;;5.05;100.00
65190;BME280;51777;53.570;9.984;2022-12-07T13:32:27;100820.44;;;5.15;100.00
65190;BME280;51777;53.570;9.984;2022-12-07T13:34:53;100826.50;;;5.14;100.00
65190;BME280;51777;53.570;9.984;2022-12-07T13:37:26;100820.34;;;5.17;100.00
65190;BME280;51777;53.570;9.984;2022-12-07T13:39:55;100825.47;;;5.17;100.00
65190;BME280;51777;53.570;9.984;2022-12-07T13:42:29;100825.28;;;5.31;100.00
65190;BME280;51777;53.570;9.984;2022-12-07T13:44:56;100824.06;;;5.37;100.00
65190;BME280;51777;53.570;9.984;2022-12-07T13:47:35;100824.66;;;5.40;100.00
65190;BME280;51777;53.570;9.984;2022-12-07T13:50:20;100827.69;;;5.45;100.00
65190;BME280;51777;53.570;9.984;2022-12-07T13:52:46;100830.81;;;5.38;96.29
65190;BME280;51777;53.570;9.984;2022-12-07T13:55:16;100819.19;;;5.45;100.00
65190;BME280;51777;53.570;9.984;2022-12-07T13:57:51;100826.94;;;5.32;95.00
65190;BME280;51777;53.570;9.984;2022-12-07T14:00:24;100827.44;;;5.37;97.11
65190;BME280;51777;53.570;9.984;2022-12-07T14:03:20;100824.16;;;5.35;99.61
65190;BME280;51777;53.570;9.984;2022-12-07T14:06:05;100828.63;;;5.20;91.27
65190;BME280;51777;53.570;9.984;2022-12-07T14:08:32;100831.69;;;5.25;98.44
65190;BME280;51777;53.570;9.984;2022-12-07T14:10:59;100829.25;;;5.24;95.51
65190;BME280;51777;53.570;9.984;2022-12-07T14:13:32;100821.66;;;5.22;97.35
65190;BME280;51777;53.570;9.984;2022-12-07T14:16:02;100814.41;;;5.16;93.07
65190;BME280;51777;53.570;9.984;2022-12-07T14:18:35;100816.19;;;5.03;92.40
65190;BME280;51777;53.570;9.984;2022-12-07T14:23:38;100816.72;;;5.19;96.52
65190;BME280;51777;53.570;9.984;2022-12-07T14:26:13;100827.22;;;5.16;89.99
65190;BME280;51777;53.570;9.984;2022-12-07T14:28:40;100819.47;;;5.05;90.31
65190;BME280;51777;53.570;9.984;2022-12-07T14:31:14;100825.22;;;4.96;93.62
65190;BME280;51777;53.570;9.984;2022-12-07T14:33:40;100822.41;;;4.88;93.25
65190;BME280;51777;53.570;9.984;2022-12-07T14:36:09;100818.63;;;4.68;90.97
65190;BME280;51777;53.570;9.984;2022-12-07T14:38:34;100828.06;;;4.67;93.66
65190;BME280;51777;53.570;9.984;2022-12-07T14:41:03;100826.66;;;4.63;90.26